sensor_id;sensor_type;location;lat;lon;timestamp;temperature;humidity
21092;DHT22;10704;42.678;23.288;2022-09-13T00:00:34;13.90;99.90
21092;DHT22;10704;42.678;23.288;2022-09-13T00:03:01;14.00;99.90
21092;DHT22;10704;42.678;23.288;2022-09-13T00:05:27;14.00;99.90
21092;DHT22;10704;42.678;23.288;2022-09-13T00:07:53;14.00;99.90
21092;DHT22;10704;42.678;23.288;2022-09-13T00:10:19;14.10;99.90
21092;DHT22;10704;42.678;23.288;2022-09-13T00:12:47;14.10;99.90
21092;DHT22;10704;42.678;23.288;2022-09-13T00:15:13;14.20;99.90
21092;DHT22;10704;42.678;23.288;2022-09-13T00:17:39;14.30;99.90
21092;DHT22;10704;42.678;23.288;2022-09-13T00:20:05;14.30;99.90
21092;DHT22;10704;42.678;23.288;2022-09-13T00:22:31;14.40;99.90
21092;DHT22;10704;42.678;23.288;2022-09-13T00:24:57;14.40;99.90
21092;DHT22;10704;42.678;23.288;2022-09-13T00:27:23;14.40;99.90
21092;DHT22;10704;42.678;23.288;2022-09-13T00:29:49;14.40;99.90
21092;DHT22;10704;42.678;23.288;2022-09-13T00:32:16;14.40;99.90
21092;DHT22;10704;42.678;23.288;2022-09-13T00:34:42;14.40;99.90
21092;DHT22;10704;42.678;23.288;2022-09-13T00:37:08;14.40;99.90
21092;DHT22;10704;42.678;23.288;2022-09-13T00:39:34;14.50;99.90
21092;DHT22;10704;42.678;23.288;2022-09-13T00:42:00;14.50;99.90
21092;DHT22;10704;42.678;23.288;2022-09-13T00:44:51;14.50;99.90
21092;DHT22;10704;42.678;23.288;2022-09-13T00:47:28;14.60;99.90
21092;DHT22;10704;42.678;23.288;2022-09-13T00:50:23;14.60;99.90
21092;DHT22;10704;42.678;23.288;2022-09-13T00:53:11;14.60;99.90
21092;DHT22;10704;42.678;23.288;2022-09-13T00:58:26;14.60;99.90
21092;DHT22;10704;42.678;23.288;2022-09-13T01:00:54;14.60;99.90
21092;DHT22;10704;42.678;23.288;2022-09-13T01:03:24;14.60;99.90
21092;DHT22;10704;42.678;23.288;2022-09-13T01:06:03;14.70;99.90
21092;DHT22;10704;42.678;23.288;2022-09-13T01:08:31;14.70;99.90
21092;DHT22;10704;42.678;23.288;2022-09-13T01:10:59;14.70;99.90
21092;DHT22;10704;42.678;23.288;2022-09-13T01:13:29;14.70;99.90
21092;DHT22;10704;42.678;23.288;2022-09-13T01:15:57;14.70;99.90
21092;DHT22;10704;42.678;23.288;2022-09-13T01:18:24;14.70;99.90
21092;DHT22;10704;42.678;23.288;2022-09-13T01:28:59;14.70;99.90
21092;DHT22;10704;42.678;23.288;2022-09-13T01:37:18;14.70;99.90
21092;DHT22;10704;42.678;23.288;2022-09-13T01:39:57;14.70;99.90
21092;DHT22;10704;42.678;23.288;2022-09-13T01:42:30;14.70;99.90
21092;DHT22;10704;42.678;23.288;2022-09-13T01:51:05;14.60;99.90
21092;DHT22;10704;42.678;23.288;2022-09-13T01:53:39;14.60;99.90
21092;DHT22;10704;42.678;23.288;2022-09-13T01:59:16;14.60;99.90
21092;DHT22;10704;42.678;23.288;2022-09-13T02:02:06;14.50;99.90
21092;DHT22;10704;42.678;23.288;2022-09-13T02:04:38;14.60;99.90
21092;DHT22;10704;42.678;23.288;2022-09-13T02:07:12;14.60;99.90
21092;DHT22;10704;42.678;23.288;2022-09-13T02:09:46;14.60;99.90
21092;DHT22;10704;42.678;23.288;2022-09-13T02:12:24;14.70;99.90
21092;DHT22;10704;42.678;23.288;2022-09-13T02:15:01;14.70;99.90
21092;DHT22;10704;42.678;23.288;2022-09-13T02:17:33;14.60;99.90
21092;DHT22;10704;42.678;23.288;2022-09-13T02:20:07;14.70;99.90
21092;DHT22;10704;42.678;23.288;2022-09-13T02:22:41;14.60;99.90
21092;DHT22;10704;42.678;23.288;2022-09-13T02:25:12;14.50;99.90
21092;DHT22;10704;42.678;23.288;2022-09-13T02:27:40;14.40;99.90
21092;DHT22;10704;42.678;23.288;2022-09-13T02:30:09;14.40;99.90
21092;DHT22;10704;42.678;23.288;2022-09-13T02:35:12;14.30;99.90
21092;DHT22;10704;42.678;23.288;2022-09-13T02:37:43;14.30;99.90
21092;DHT22;10704;42.678;23.288;2022-09-13T02:40:16;14.20;99.90
21092;DHT22;10704;42.678;23.288;2022-09-13T02:42:53;14.10;99.90
21092;DHT22;10704;42.678;23.288;2022-09-13T02:45:21;14.10;99.90
21092;DHT22;10704;42.678;23.288;2022-09-13T02:48:03;14.00;99.90
21092;DHT22;10704;42.678;23.288;2022-09-13T02:50:32;14.00;99.90
21092;DHT22;10704;42.678;23.288;2022-09-13T02:53:18;13.90;99.90
21092;DHT22;10704;42.678;23.288;2022-09-13T02:58:49;13.80;99.90
21092;DHT22;10704;42.678;23.288;2022-09-13T03:01:17;13.90;99.90
21092;DHT22;10704;42.678;23.288;2022-09-13T03:03:43;13.80;99.90
21092;DHT22;10704;42.678;23.288;2022-09-13T03:06:09;13.90;99.90
21092;DHT22;10704;42.678;23.288;2022-09-13T03:08:36;13.80;99.90
21092;DHT22;10704;42.678;23.288;2022-09-13T03:11:19;13.80;99.90
21092;DHT22;10704;42.678;23.288;2022-09-13T03:14:19;13.80;99.90
21092;DHT22;10704;42.678;23.288;2022-09-13T03:19:52;13.80;99.90
21092;DHT22;10704;42.678;23.288;2022-09-13T03:23:29;13.70;99.90
21092;DHT22;10704;42.678;23.288;2022-09-13T03:28:02;13.80;99.90
21092;DHT22;10704;42.678;23.288;2022-09-13T03:30:34;13.70;99.90
21092;DHT22;10704;42.678;23.288;2022-09-13T03:33:14;13.80;99.90
21092;DHT22;10704;42.678;23.288;2022-09-13T03:36:11;13.80;99.90
21092;DHT22;10704;42.678;23.288;2022-09-13T03:39:09;13.80;99.90
21092;DHT22;10704;42.678;23.288;2022-09-13T03:41:42;13.70;99.90
21092;DHT22;10704;42.678;23.288;2022-09-13T03:44:13;13.80;99.90
21092;DHT22;10704;42.678;23.288;2022-09-13T03:46:43;13.80;99.90
21092;DHT22;10704;42.678;23.288;2022-09-13T03:49:13;13.70;99.90
21092;DHT22;10704;42.678;23.288;2022-09-13T03:51:42;13.70;99.90
21092;DHT22;10704;42.678;23.288;2022-09-13T03:54:31;13.70;99.90
21092;DHT22;10704;42.678;23.288;2022-09-13T03:57:16;13.70;99.90
21092;DHT22;10704;42.678;23.288;2022-09-13T03:59:51;13.60;99.90
21092;DHT22;10704;42.678;23.288;2022-09-13T04:02:18;13.50;99.90
21092;DHT22;10704;42.678;23.288;2022-09-13T04:04:46;13.50;99.90
21092;DHT22;10704;42.678;23.288;2022-09-13T04:07:18;13.40;99.90
21092;DHT22;10704;42.678;23.288;2022-09-13T04:09:44;13.50;99.90
21092;DHT22;10704;42.678;23.288;2022-09-13T04:12:11;13.40;99.90
21092;DHT22;10704;42.678;23.288;2022-09-13T04:14:39;13.50;99.90
21092;DHT22;10704;42.678;23.288;2022-09-13T04:17:05;13.50;99.90
21092;DHT22;10704;42.678;23.288;2022-09-13T04:19:32;13.50;99.90
21092;DHT22;10704;42.678;23.288;2022-09-13T04:21:58;13.50;99.90
21092;DHT22;10704;42.678;23.288;2022-09-13T04:24:27;13.50;99.90
21092;DHT22;10704;42.678;23.288;2022-09-13T04:26:54;13.40;99.90
21092;DHT22;10704;42.678;23.288;2022-09-13T04:29:22;13.40;99.90
21092;DHT22;10704;42.678;23.288;2022-09-13T04:31:50;13.50;99.90
21092;DHT22;10704;42.678;23.288;2022-09-13T04:34:16;13.50;99.90
21092;DHT22;10704;42.678;23.288;2022-09-13T04:36:47;13.50;99.90
21092;DHT22;10704;42.678;23.288;2022-09-13T04:39:13;13.60;99.90
21092;DHT22;10704;42.678;23.288;2022-09-13T04:41:43;13.50;99.90
21092;DHT22;10704;42.678;23.288;2022-09-13T04:44:14;13.60;99.90
21092;DHT22;10704;42.678;23.288;2022-09-13T04:46:40;13.80;99.90
21092;DHT22;10704;42.678;23.288;2022-09-13T04:49:06;13.90;99.90
21092;DHT22;10704;42.678;23.288;2022-09-13T04:51:33;14.00;99.90
21092;DHT22;10704;42.678;23.288;2022-09-13T04:53:59;14.10;99.90
21092;DHT22;10704;42.678;23.288;2022-09-13T04:56:26;14.10;99.90
21092;DHT22;10704;42.678;23.288;2022-09-13T04:58:53;14.20;99.90
21092;DHT22;10704;42.678;23.288;2022-09-13T05:01:20;14.30;99.90
21092;DHT22;10704;42.678;23.288;2022-09-13T05:03:47;14.40;99.90
21092;DHT22;10704;42.678;23.288;2022-09-13T05:06:15;14.50;99.90
21092;DHT22;10704;42.678;23.288;2022-09-13T05:08:48;14.60;99.90
21092;DHT22;10704;42.678;23.288;2022-09-13T05:11:14;14.80;99.90
21092;DHT22;10704;42.678;23.288;2022-09-13T05:13:40;15.10;99.90
21092;DHT22;10704;42.678;23.288;2022-09-13T05:16:07;15.40;99.90
21092;DHT22;10704;42.678;23.288;2022-09-13T05:18:35;15.70;99.90
21092;DHT22;10704;42.678;23.288;2022-09-13T05:21:03;16.00;99.90
21092;DHT22;10704;42.678;23.288;2022-09-13T05:23:30;16.10;99.90
21092;DHT22;10704;42.678;23.288;2022-09-13T05:26:01;16.00;99.90
21092;DHT22;10704;42.678;23.288;2022-09-13T05:28:29;16.10;99.90
21092;DHT22;10704;42.678;23.288;2022-09-13T05:31:00;16.00;99.90
21092;DHT22;10704;42.678;23.288;2022-09-13T05:33:29;15.80;99.90
21092;DHT22;10704;42.678;23.288;2022-09-13T05:35:57;15.70;99.90
21092;DHT22;10704;42.678;23.288;2022-09-13T05:38:23;15.70;99.90
21092;DHT22;10704;42.678;23.288;2022-09-13T05:40:57;15.70;99.90
21092;DHT22;10704;42.678;23.288;2022-09-13T05:43:25;15.60;99.90
21092;DHT22;10704;42.678;23.288;2022-09-13T05:46:02;15.50;99.90
21092;DHT22;10704;42.678;23.288;2022-09-13T05:48:29;15.40;99.90
21092;DHT22;10704;42.678;23.288;2022-09-13T05:50:56;15.40;99.90
21092;DHT22;10704;42.678;23.288;2022-09-13T05:53:28;15.40;99.90
21092;DHT22;10704;42.678;23.288;2022-09-13T05:55:54;15.30;99.90
21092;DHT22;10704;42.678;23.288;2022-09-13T05:58:20;15.20;99.90
21092;DHT22;10704;42.678;23.288;2022-09-13T06:00:52;15.20;99.90
21092;DHT22;10704;42.678;23.288;2022-09-13T06:03:18;15.20;99.90
21092;DHT22;10704;42.678;23.288;2022-09-13T06:05:44;15.40;99.90
21092;DHT22;10704;42.678;23.288;2022-09-13T06:08:10;15.50;99.90
21092;DHT22;10704;42.678;23.288;2022-09-13T06:10:36;15.50;99.90
21092;DHT22;10704;42.678;23.288;2022-09-13T06:13:02;15.70;99.90
21092;DHT22;10704;42.678;23.288;2022-09-13T06:15:28;15.90;99.90
21092;DHT22;10704;42.678;23.288;2022-09-13T06:17:54;15.90;99.90
21092;DHT22;10704;42.678;23.288;2022-09-13T06:20:19;16.00;99.90
21092;DHT22;10704;42.678;23.288;2022-09-13T06:22:48;16.20;99.90
21092;DHT22;10704;42.678;23.288;2022-09-13T06:25:15;16.40;99.90
21092;DHT22;10704;42.678;23.288;2022-09-13T06:27:41;16.40;99.90
21092;DHT22;10704;42.678;23.288;2022-09-13T06:30:08;16.40;99.90
21092;DHT22;10704;42.678;23.288;2022-09-13T06:32:34;16.60;99.90
21092;DHT22;10704;42.678;23.288;2022-09-13T06:35:00;16.80;99.90
21092;DHT22;10704;42.678;23.288;2022-09-13T06:37:26;16.90;99.90
21092;DHT22;10704;42.678;23.288;2022-09-13T06:39:51;16.80;99.90
21092;DHT22;10704;42.678;23.288;2022-09-13T06:42:17;16.80;99.90
21092;DHT22;10704;42.678;23.288;2022-09-13T06:44:43;16.80;99.90
21092;DHT22;10704;42.678;23.288;2022-09-13T06:47:11;16.80;99.90
21092;DHT22;10704;42.678;23.288;2022-09-13T06:49:37;16.80;99.90
21092;DHT22;10704;42.678;23.288;2022-09-13T06:52:04;16.90;99.90
21092;DHT22;10704;42.678;23.288;2022-09-13T06:54:30;16.90;99.90
21092;DHT22;10704;42.678;23.288;2022-09-13T06:56:56;17.00;99.90
21092;DHT22;10704;42.678;23.288;2022-09-13T06:59:22;17.00;99.90
21092;DHT22;10704;42.678;23.288;2022-09-13T07:01:48;17.20;99.90
21092;DHT22;10704;42.678;23.288;2022-09-13T07:04:17;17.50;99.90
21092;DHT22;10704;42.678;23.288;2022-09-13T07:06:48;17.60;99.90
21092;DHT22;10704;42.678;23.288;2022-09-13T07:09:19;17.60;99.90
21092;DHT22;10704;42.678;23.288;2022-09-13T07:11:48;17.80;99.90
21092;DHT22;10704;42.678;23.288;2022-09-13T07:14:25;17.90;99.90
21092;DHT22;10704;42.678;23.288;2022-09-13T07:16:52;17.80;99.90
21092;DHT22;10704;42.678;23.288;2022-09-13T07:19:23;18.30;99.90
21092;DHT22;10704;42.678;23.288;2022-09-13T07:21:51;18.30;99.90
21092;DHT22;10704;42.678;23.288;2022-09-13T07:24:18;18.60;99.90
21092;DHT22;10704;42.678;23.288;2022-09-13T07:26:46;18.50;99.90
21092;DHT22;10704;42.678;23.288;2022-09-13T07:29:13;18.40;99.90
21092;DHT22;10704;42.678;23.288;2022-09-13T07:31:43;19.00;99.90
21092;DHT22;10704;42.678;23.288;2022-09-13T07:34:14;19.30;99.90
21092;DHT22;10704;42.678;23.288;2022-09-13T07:36:40;19.40;99.90
21092;DHT22;10704;42.678;23.288;2022-09-13T07:39:06;19.70;99.90
21092;DHT22;10704;42.678;23.288;2022-09-13T07:41:33;19.60;99.90
21092;DHT22;10704;42.678;23.288;2022-09-13T07:43:59;19.30;99.90
21092;DHT22;10704;42.678;23.288;2022-09-13T07:46:28;19.30;99.90
21092;DHT22;10704;42.678;23.288;2022-09-13T07:48:58;19.70;99.90
21092;DHT22;10704;42.678;23.288;2022-09-13T07:51:27;20.20;98.70
21092;DHT22;10704;42.678;23.288;2022-09-13T07:54:05;20.60;98.00
21092;DHT22;10704;42.678;23.288;2022-09-13T07:56:36;20.80;95.20
21092;DHT22;10704;42.678;23.288;2022-09-13T07:59:05;20.60;95.30
21092;DHT22;10704;42.678;23.288;2022-09-13T08:01:43;21.10;94.30
21092;DHT22;10704;42.678;23.288;2022-09-13T08:04:14;21.50;92.50
21092;DHT22;10704;42.678;23.288;2022-09-13T08:06:42;21.40;90.10
21092;DHT22;10704;42.678;23.288;2022-09-13T08:09:09;21.10;91.00
21092;DHT22;10704;42.678;23.288;2022-09-13T08:11:43;21.10;90.90
21092;DHT22;10704;42.678;23.288;2022-09-13T08:14:13;20.90;90.70
21092;DHT22;10704;42.678;23.288;2022-09-13T08:16:39;21.30;90.10
21092;DHT22;10704;42.678;23.288;2022-09-13T08:19:06;21.50;87.70
21092;DHT22;10704;42.678;23.288;2022-09-13T08:21:35;21.60;88.10
21092;DHT22;10704;42.678;23.288;2022-09-13T08:24:02;21.90;86.20
21092;DHT22;10704;42.678;23.288;2022-09-13T08:26:30;22.30;83.80
21092;DHT22;10704;42.678;23.288;2022-09-13T08:28:58;22.70;80.90
21092;DHT22;10704;42.678;23.288;2022-09-13T08:31:24;22.80;79.90
21092;DHT22;10704;42.678;23.288;2022-09-13T08:33:51;22.50;79.70
21092;DHT22;10704;42.678;23.288;2022-09-13T08:36:18;21.90;80.90
21092;DHT22;10704;42.678;23.288;2022-09-13T08:38:52;22.10;78.50
21092;DHT22;10704;42.678;23.288;2022-09-13T08:43:58;23.40;72.80
21092;DHT22;10704;42.678;23.288;2022-09-13T08:46:31;22.90;71.00
21092;DHT22;10704;42.678;23.288;2022-09-13T08:49:00;22.20;73.50
21092;DHT22;10704;42.678;23.288;2022-09-13T08:51:44;21.80;75.50
21092;DHT22;10704;42.678;23.288;2022-09-13T08:54:13;22.20;75.50
21092;DHT22;10704;42.678;23.288;2022-09-13T08:57:07;23.30;72.10
21092;DHT22;10704;42.678;23.288;2022-09-13T09:05:28;22.00;70.50
21092;DHT22;10704;42.678;23.288;2022-09-13T09:08:12;23.50;66.30
21092;DHT22;10704;42.678;23.288;2022-09-13T09:10:42;24.70;63.90
21092;DHT22;10704;42.678;23.288;2022-09-13T09:13:30;24.50;64.50
21092;DHT22;10704;42.678;23.288;2022-09-13T09:16:25;23.20;65.70
21092;DHT22;10704;42.678;23.288;2022-09-13T09:18:46;23.00;67.70
21092;DHT22;10704;42.678;23.288;2022-09-13T09:21:16;22.90;67.70
21092;DHT22;10704;42.678;23.288;2022-09-13T09:26:16;23.80;62.30
21092;DHT22;10704;42.678;23.288;2022-09-13T09:28:53;24.40;61.20
21092;DHT22;10704;42.678;23.288;2022-09-13T09:31:29;24.20;60.30
21092;DHT22;10704;42.678;23.288;2022-09-13T09:39:18;22.80;65.00
21092;DHT22;10704;42.678;23.288;2022-09-13T09:41:44;22.10;66.40
21092;DHT22;10704;42.678;23.288;2022-09-13T09:44:22;21.40;69.20
21092;DHT22;10704;42.678;23.288;2022-09-13T09:47:21;21.50;68.90
21092;DHT22;10704;42.678;23.288;2022-09-13T09:50:00;22.00;67.80
21092;DHT22;10704;42.678;23.288;2022-09-13T09:55:29;23.60;64.20
21092;DHT22;10704;42.678;23.288;2022-09-13T09:58:02;23.10;65.20
21092;DHT22;10704;42.678;23.288;2022-09-13T10:00:36;22.60;67.20
21092;DHT22;10704;42.678;23.288;2022-09-13T10:03:14;22.40;67.20
21092;DHT22;10704;42.678;23.288;2022-09-13T10:05:41;23.00;68.00
21092;DHT22;10704;42.678;23.288;2022-09-13T10:08:27;23.30;65.50
21092;DHT22;10704;42.678;23.288;2022-09-13T10:10:56;22.60;66.50
21092;DHT22;10704;42.678;23.288;2022-09-13T10:13:25;23.10;66.20
21092;DHT22;10704;42.678;23.288;2022-09-13T10:15:56;25.50;61.20
21092;DHT22;10704;42.678;23.288;2022-09-13T10:18:24;27.30;57.50
21092;DHT22;10704;42.678;23.288;2022-09-13T10:23:31;28.20;54.00
21092;DHT22;10704;42.678;23.288;2022-09-13T10:28:24;26.20;56.60
21092;DHT22;10704;42.678;23.288;2022-09-13T10:31:18;25.30;57.20
21092;DHT22;10704;42.678;23.288;2022-09-13T10:33:57;24.30;58.60
21092;DHT22;10704;42.678;23.288;2022-09-13T10:36:31;23.90;59.90
21092;DHT22;10704;42.678;23.288;2022-09-13T10:41:26;24.80;58.70
21092;DHT22;10704;42.678;23.288;2022-09-13T10:44:01;24.80;58.30
21092;DHT22;10704;42.678;23.288;2022-09-13T10:46:31;26.10;56.70
21092;DHT22;10704;42.678;23.288;2022-09-13T10:48:57;27.50;54.50
21092;DHT22;10704;42.678;23.288;2022-09-13T10:54:19;28.10;52.90
21092;DHT22;10704;42.678;23.288;2022-09-13T10:56:48;26.70;54.60
21092;DHT22;10704;42.678;23.288;2022-09-13T11:04:44;24.60;58.10
21092;DHT22;10704;42.678;23.288;2022-09-13T11:07:50;26.20;55.50
21092;DHT22;10704;42.678;23.288;2022-09-13T11:10:36;27.10;52.50
21092;DHT22;10704;42.678;23.288;2022-09-13T11:16:15;28.20;50.20
21092;DHT22;10704;42.678;23.288;2022-09-13T11:22:23;25.70;52.70
21092;DHT22;10704;42.678;23.288;2022-09-13T11:30:30;25.70;54.30
21092;DHT22;10704;42.678;23.288;2022-09-13T11:33:16;27.10;51.80
21092;DHT22;10704;42.678;23.288;2022-09-13T11:36:02;27.80;50.10
21092;DHT22;10704;42.678;23.288;2022-09-13T11:39:17;27.20;50.40
21092;DHT22;10704;42.678;23.288;2022-09-13T11:41:50;25.70;52.20
21092;DHT22;10704;42.678;23.288;2022-09-13T11:55:53;26.60;51.90
21092;DHT22;10704;42.678;23.288;2022-09-13T11:58:39;26.40;51.60
21092;DHT22;10704;42.678;23.288;2022-09-13T12:01:11;26.80;51.30
21092;DHT22;10704;42.678;23.288;2022-09-13T12:04:04;26.30;50.50
21092;DHT22;10704;42.678;23.288;2022-09-13T12:06:43;25.10;53.20
21092;DHT22;10704;42.678;23.288;2022-09-13T12:09:27;24.20;55.30
21092;DHT22;10704;42.678;23.288;2022-09-13T12:12:20;24.80;54.40
21092;DHT22;10704;42.678;23.288;2022-09-13T12:15:00;25.00;54.40
21092;DHT22;10704;42.678;23.288;2022-09-13T12:19:57;24.90;53.50
21092;DHT22;10704;42.678;23.288;2022-09-13T12:22:28;24.80;52.00
21092;DHT22;10704;42.678;23.288;2022-09-13T12:25:03;24.90;52.80
21092;DHT22;10704;42.678;23.288;2022-09-13T12:30:47;25.50;51.70
21092;DHT22;10704;42.678;23.288;2022-09-13T12:33:16;25.60;52.00
21092;DHT22;10704;42.678;23.288;2022-09-13T12:36:08;26.50;51.50
21092;DHT22;10704;42.678;23.288;2022-09-13T12:41:50;27.30;49.60
21092;DHT22;10704;42.678;23.288;2022-09-13T12:52:30;26.20;51.30
21092;DHT22;10704;42.678;23.288;2022-09-13T13:00:24;26.60;50.40
21092;DHT22;10704;42.678;23.288;2022-09-13T13:05:49;25.10;51.60
21092;DHT22;10704;42.678;23.288;2022-09-13T13:11:09;25.80;51.30
21092;DHT22;10704;42.678;23.288;2022-09-13T13:13:44;25.40;52.90
21092;DHT22;10704;42.678;23.288;2022-09-13T13:16:29;25.00;53.90
21092;DHT22;10704;42.678;23.288;2022-09-13T13:18:59;24.30;55.00
21092;DHT22;10704;42.678;23.288;2022-09-13T13:21:31;23.80;56.00
21092;DHT22;10704;42.678;23.288;2022-09-13T13:29:31;23.80;55.90
21092;DHT22;10704;42.678;23.288;2022-09-13T13:34:47;23.30;57.10
21092;DHT22;10704;42.678;23.288;2022-09-13T13:39:41;24.70;56.40
21092;DHT22;10704;42.678;23.288;2022-09-13T13:49:50;24.10;54.70
21092;DHT22;10704;42.678;23.288;2022-09-13T13:55:01;23.20;58.70
21092;DHT22;10704;42.678;23.288;2022-09-13T13:57:36;23.30;59.00
21092;DHT22;10704;42.678;23.288;2022-09-13T14:00:21;24.30;57.70
21092;DHT22;10704;42.678;23.288;2022-09-13T14:19:33;24.00;56.60
21092;DHT22;10704;42.678;23.288;2022-09-13T14:22:13;24.20;56.90
21092;DHT22;10704;42.678;23.288;2022-09-13T14:24:51;24.40;56.60
21092;DHT22;10704;42.678;23.288;2022-09-13T14:29:59;23.90;56.90
21092;DHT22;10704;42.678;23.288;2022-09-13T14:32:28;23.10;57.90
21092;DHT22;10704;42.678;23.288;2022-09-13T14:35:02;22.40;59.70
21092;DHT22;10704;42.678;23.288;2022-09-13T14:37:31;22.40;59.70
21092;DHT22;10704;42.678;23.288;2022-09-13T14:40:16;22.30;59.90
21092;DHT22;10704;42.678;23.288;2022-09-13T14:42:45;22.30;59.50
21092;DHT22;10704;42.678;23.288;2022-09-13T14:45:19;22.70;58.30
21092;DHT22;10704;42.678;23.288;2022-09-13T14:50:59;22.70;58.40
21092;DHT22;10704;42.678;23.288;2022-09-13T14:53:29;22.60;59.00
21092;DHT22;10704;42.678;23.288;2022-09-13T14:58:43;22.50;58.50
21092;DHT22;10704;42.678;23.288;2022-09-13T15:01:20;22.40;58.20
21092;DHT22;10704;42.678;23.288;2022-09-13T15:04:05;22.60;58.20
21092;DHT22;10704;42.678;23.288;2022-09-13T15:06:34;23.00;57.90
21092;DHT22;10704;42.678;23.288;2022-09-13T15:11:41;22.90;57.60
21092;DHT22;10704;42.678;23.288;2022-09-13T15:17:12;22.30;59.10
21092;DHT22;10704;42.678;23.288;2022-09-13T15:19:47;22.50;59.30
21092;DHT22;10704;42.678;23.288;2022-09-13T15:22:28;22.90;58.40
21092;DHT22;10704;42.678;23.288;2022-09-13T15:24:56;23.50;57.40
21092;DHT22;10704;42.678;23.288;2022-09-13T15:27:28;23.40;56.90
21092;DHT22;10704;42.678;23.288;2022-09-13T15:30:00;23.10;57.30
21092;DHT22;10704;42.678;23.288;2022-09-13T15:32:39;23.10;58.20
21092;DHT22;10704;42.678;23.288;2022-09-13T15:35:28;23.50;57.90
21092;DHT22;10704;42.678;23.288;2022-09-13T15:38:19;23.20;58.60
21092;DHT22;10704;42.678;23.288;2022-09-13T15:41:33;23.00;59.10
21092;DHT22;10704;42.678;23.288;2022-09-13T15:43:33;22.90;59.50
21092;DHT22;10704;42.678;23.288;2022-09-13T15:45:59;22.80;59.70
21092;DHT22;10704;42.678;23.288;2022-09-13T15:48:29;22.70;59.80
21092;DHT22;10704;42.678;23.288;2022-09-13T15:51:11;22.50;59.70
21092;DHT22;10704;42.678;23.288;2022-09-13T15:53:39;22.40;59.50
21092;DHT22;10704;42.678;23.288;2022-09-13T15:56:06;22.10;59.80
21092;DHT22;10704;42.678;23.288;2022-09-13T15:58:34;21.80;60.60
21092;DHT22;10704;42.678;23.288;2022-09-13T16:01:00;21.40;61.50
21092;DHT22;10704;42.678;23.288;2022-09-13T16:03:27;20.90;63.20
21092;DHT22;10704;42.678;23.288;2022-09-13T16:05:55;20.70;64.00
21092;DHT22;10704;42.678;23.288;2022-09-13T16:08:22;20.40;65.20
21092;DHT22;10704;42.678;23.288;2022-09-13T16:10:49;20.20;66.20
21092;DHT22;10704;42.678;23.288;2022-09-13T16:13:15;20.10;66.30
21092;DHT22;10704;42.678;23.288;2022-09-13T16:15:41;19.90;67.00
21092;DHT22;10704;42.678;23.288;2022-09-13T16:18:07;19.70;67.90
21092;DHT22;10704;42.678;23.288;2022-09-13T16:20:34;19.50;68.80
21092;DHT22;10704;42.678;23.288;2022-09-13T16:23:00;19.40;69.70
21092;DHT22;10704;42.678;23.288;2022-09-13T16:25:26;19.20;70.60
21092;DHT22;10704;42.678;23.288;2022-09-13T16:27:52;19.10;71.50
21092;DHT22;10704;42.678;23.288;2022-09-13T16:30:20;19.00;72.20
21092;DHT22;10704;42.678;23.288;2022-09-13T16:32:47;18.90;72.60
21092;DHT22;10704;42.678;23.288;2022-09-13T16:35:13;18.80;73.30
21092;DHT22;10704;42.678;23.288;2022-09-13T16:37:41;18.70;73.90
21092;DHT22;10704;42.678;23.288;2022-09-13T16:40:08;18.50;74.50
21092;DHT22;10704;42.678;23.288;2022-09-13T16:42:35;18.40;74.90
21092;DHT22;10704;42.678;23.288;2022-09-13T16:45:01;18.30;75.30
21092;DHT22;10704;42.678;23.288;2022-09-13T16:47:27;18.20;75.60
21092;DHT22;10704;42.678;23.288;2022-09-13T16:49:53;18.00;75.40
21092;DHT22;10704;42.678;23.288;2022-09-13T16:52:19;18.00;75.70
21092;DHT22;10704;42.678;23.288;2022-09-13T16:54:45;17.90;76.00
21092;DHT22;10704;42.678;23.288;2022-09-13T16:57:14;17.80;76.50
21092;DHT22;10704;42.678;23.288;2022-09-13T16:59:40;17.80;77.00
21092;DHT22;10704;42.678;23.288;2022-09-13T17:02:09;17.70;77.80
21092;DHT22;10704;42.678;23.288;2022-09-13T17:04:35;17.70;78.30
21092;DHT22;10704;42.678;23.288;2022-09-13T17:07:01;17.60;78.90
21092;DHT22;10704;42.678;23.288;2022-09-13T17:09:29;17.50;79.20
21092;DHT22;10704;42.678;23.288;2022-09-13T17:11:55;17.60;79.60
21092;DHT22;10704;42.678;23.288;2022-09-13T17:14:21;17.60;80.00
21092;DHT22;10704;42.678;23.288;2022-09-13T17:16:49;17.50;80.50
21092;DHT22;10704;42.678;23.288;2022-09-13T17:19:19;17.50;81.10
21092;DHT22;10704;42.678;23.288;2022-09-13T17:21:46;17.50;81.30
21092;DHT22;10704;42.678;23.288;2022-09-13T17:24:12;17.40;81.70
21092;DHT22;10704;42.678;23.288;2022-09-13T17:26:39;17.50;82.20
21092;DHT22;10704;42.678;23.288;2022-09-13T17:29:05;17.50;82.40
21092;DHT22;10704;42.678;23.288;2022-09-13T17:31:31;17.40;82.90
21092;DHT22;10704;42.678;23.288;2022-09-13T17:33:57;17.40;83.50
21092;DHT22;10704;42.678;23.288;2022-09-13T17:36:23;17.30;84.00
21092;DHT22;10704;42.678;23.288;2022-09-13T17:38:54;17.30;84.60
21092;DHT22;10704;42.678;23.288;2022-09-13T17:41:21;17.30;85.00
21092;DHT22;10704;42.678;23.288;2022-09-13T17:43:47;17.30;85.60
21092;DHT22;10704;42.678;23.288;2022-09-13T17:46:18;17.30;86.30
21092;DHT22;10704;42.678;23.288;2022-09-13T17:48:49;17.20;87.10
21092;DHT22;10704;42.678;23.288;2022-09-13T17:51:21;17.20;87.60
21092;DHT22;10704;42.678;23.288;2022-09-13T17:53:48;17.20;88.40
21092;DHT22;10704;42.678;23.288;2022-09-13T17:56:22;17.20;88.80
21092;DHT22;10704;42.678;23.288;2022-09-13T17:58:48;17.10;89.60
21092;DHT22;10704;42.678;23.288;2022-09-13T18:01:14;17.10;90.20
21092;DHT22;10704;42.678;23.288;2022-09-13T18:03:40;17.10;90.50
21092;DHT22;10704;42.678;23.288;2022-09-13T18:06:08;17.00;90.80
21092;DHT22;10704;42.678;23.288;2022-09-13T18:08:36;17.00;91.30
21092;DHT22;10704;42.678;23.288;2022-09-13T18:11:05;17.00;91.90
21092;DHT22;10704;42.678;23.288;2022-09-13T18:13:32;16.90;92.40
21092;DHT22;10704;42.678;23.288;2022-09-13T18:16:04;16.90;93.00
21092;DHT22;10704;42.678;23.288;2022-09-13T18:18:32;16.80;93.50
21092;DHT22;10704;42.678;23.288;2022-09-13T18:20:58;16.80;94.10
21092;DHT22;10704;42.678;23.288;2022-09-13T18:23:24;16.80;94.80
21092;DHT22;10704;42.678;23.288;2022-09-13T18:26:04;16.80;95.30
21092;DHT22;10704;42.678;23.288;2022-09-13T18:28:31;16.70;96.30
21092;DHT22;10704;42.678;23.288;2022-09-13T18:30:59;16.70;97.00
21092;DHT22;10704;42.678;23.288;2022-09-13T18:33:26;16.70;97.60
21092;DHT22;10704;42.678;23.288;2022-09-13T18:35:56;16.70;98.30